Blue Star 1 — SWET — position and weather

sailwx.info

Track history (hours):
 
Tides and Currents Weather Stations Pressure Air Temp Water Temp Dewpoint Dewpoint Depression Visibility Wind Speed Wind Dir Waves Ship Positions

Blue Star 1

Last reported at 2015-Feb-27 23:33 UTC. Time now 2015-Mar-01 12:39 UTC.
Position N 37°19' E 025°51'.

Length 176 m; draft 6.5 m.

Type: Passenger vessel. MMSI: 239710000.

Date/timePositionNaut miles runAvg speedWind from/ knotsBaromVisibWave heightAir tempDewpointWater temp
2015-Feb-27 23:33N 37°19' E 025°51'2221.8
2015-Feb-27 22:33N 37°21' E 025°24'2221.5
2015-Feb-27 21:33N 37°26' E 024°58'9 9.4
2015-Feb-27 20:33N 37°32' E 024°48'3624.3
2015-Feb-27 19:03N 37°34' E 024°02'1224.9
2015-Feb-27 18:33N 37°38' E 023°48'2020.2
2015-Feb-27 17:33N 37°56' E 023°38'0 0.0
2015-Feb-27 16:28N 37°56' E 023°38'0 0.0
2015-Feb-27 15:31N 37°56' E 023°38'0 0.0
2015-Feb-27 14:28N 37°56' E 023°38'0 0.0
2015-Feb-27 13:31N 37°56' E 023°38'0 0.0
2015-Feb-27 12:25N 37°56' E 023°38'0 0.0
2015-Feb-27 11:31N 37°56' E 023°38'0 0.0
2015-Feb-27 10:28N 37°56' E 023°38'0 0.0
2015-Feb-27 09:30N 37°56' E 023°38'0 0.0
2015-Feb-27 08:31N 37°56' E 023°38'0 0.0
2015-Feb-27 07:22N 37°56' E 023°38'0 0.0
2015-Feb-27 06:31N 37°56' E 023°38'7 6.9
2015-Feb-27 05:34N 37°50' E 023°40'2121.1
2015-Feb-27 04:33N 37°35' E 023°59'4422.2
2015-Feb-27 02:33N 37°21' E 024°52'2120.7
2015-Feb-27 01:34N 37°19' E 025°18'2019.6
2015-Feb-27 00:33N 37°17' E 025°42'8 0.3
2015-Feb-25 23:33N 37°19' E 025°53'2222.1
2015-Feb-25 22:33N 37°20' E 025°25'2416.7
2015-Feb-25 21:08N 37°26' E 024°57'812.8
2015-Feb-25 20:30N 37°32' E 024°50'4724.0
2015-Feb-25 18:33N 37°37' E 023°51'2221.7
2015-Feb-25 17:32N 37°56' E 023°37'0 0.2
2015-Feb-25 16:25N 37°56' E 023°38'0 0.0
2015-Feb-25 15:25N 37°56' E 023°38'0 0.0
2015-Feb-25 14:31N 37°56' E 023°38'0 0.0
2015-Feb-25 13:19N 37°56' E 023°38'0 0.0
2015-Feb-25 12:31N 37°56' E 023°38'0 0.0
2015-Feb-25 11:30N 37°56' E 023°38'0 0.0
2015-Feb-25 10:30N 37°56' E 023°38'0 0.0
2015-Feb-25 09:33N 37°56' E 023°38'0 0.0
2015-Feb-25 08:24N 37°56' E 023°38'0 0.0
2015-Feb-25 07:33N 37°56' E 023°38'0 0.0
2015-Feb-25 06:27N 37°56' E 023°38'7 7.6
2015-Feb-25 05:33N 37°50' E 023°40'6020.2
2015-Feb-25 02:33N 37°21' E 024°47'2121.5
2015-Feb-25 01:33N 37°19' E 025°14'2222.1
2015-Feb-25 00:32N 37°18' E 025°42'10 0.4
2015-Feb-23 23:24N 37°18' E 025°55'1922.7
2015-Feb-23 22:33N 37°20' E 025°31'2222.2
2015-Feb-23 21:33N 37°25' E 025°04'1311.4
2015-Feb-23 20:23N 37°32' E 024°50'6020.7
2015-Feb-23 17:30N 37°48' E 023°37'8 8.2
2015-Feb-23 16:31N 37°56' E 023°38'0 0.0
2015-Feb-23 15:31N 37°56' E 023°38'0 0.0
2015-Feb-23 14:28N 37°56' E 023°38'0 0.0
2015-Feb-23 13:31N 37°56' E 023°38'0 0.0
2015-Feb-23 12:28N 37°56' E 023°38'0 0.0
2015-Feb-23 11:31N 37°56' E 023°38'0 0.0
2015-Feb-23 10:31N 37°56' E 023°38'0 0.0
2015-Feb-23 09:31N 37°56' E 023°38'0 0.0
2015-Feb-23 08:31N 37°56' E 023°38'0 0.0
2015-Feb-23 07:33N 37°56' E 023°38'0 0.0
2015-Feb-23 06:33N 37°56' E 023°38'0 0.0
2015-Feb-23 05:33N 37°56' E 023°38'0 0.0
2015-Feb-23 04:33N 37°56' E 023°38'0 0.0
2015-Feb-23 03:33N 37°56' E 023°38'0 0.0
2015-Feb-23 02:33N 37°56' E 023°38'0 0.0
2015-Feb-23 01:33N 37°56' E 023°38'0 0.0
2015-Feb-23 00:33N 37°56' E 023°38'0 0.0
2015-Feb-22 23:33N 37°56' E 023°38'0 0.0
2015-Feb-22 22:33N 37°56' E 023°38'0 0.0
2015-Feb-22 21:33N 37°56' E 023°38'0 0.0
2015-Feb-22 20:33N 37°56' E 023°38'0 0.0
2015-Feb-22 19:29N 37°56' E 023°38'0 0.0
2015-Feb-22 18:32N 37°56' E 023°38'0 0.0
2015-Feb-22 17:32N 37°56' E 023°38'0 0.0
2015-Feb-22 16:29N 37°56' E 023°38'0 0.0
2015-Feb-22 15:32N 37°56' E 023°38'0 0.0
2015-Feb-22 14:32N 37°56' E 023°38'0 0.0
2015-Feb-22 13:32N 37°56' E 023°38'0 0.0
2015-Feb-22 12:32N 37°56' E 023°38'0 0.0
2015-Feb-22 11:32N 37°56' E 023°38'0 0.0
2015-Feb-22 10:32N 37°56' E 023°38'0 0.0
2015-Feb-22 09:32N 37°56' E 023°38'0 0.0
2015-Feb-22 08:32N 37°56' E 023°38'0 0.0
2015-Feb-22 07:28N 37°56' E 023°38'0 0.0
2015-Feb-22 06:31N 37°56' E 023°38'0 0.0
2015-Feb-22 05:28N 37°56' E 023°38'0 0.0
2015-Feb-22 04:33N 37°56' E 023°38'8 7.6
2015-Feb-22 03:33N 37°49' E 023°41'12 0.4
2015-Feb-20 20:30N 37°37' E 023°44'2020.9
2015-Feb-20 19:33N 37°56' E 023°37'1 0.9
2015-Feb-20 18:31N 37°57' E 023°38'0 0.0
2015-Feb-20 17:31N 37°57' E 023°38'0 0.0
2015-Feb-20 16:25N 37°57' E 023°38'0 0.0
2015-Feb-20 15:31N 37°57' E 023°38'0 0.0
2015-Feb-20 09:27N 37°57' E 023°38'0 0.0
2015-Feb-20 08:33N 37°57' E 023°38'0 0.0
2015-Feb-20 07:33N 37°57' E 023°38'0 0.0
2015-Feb-20 06:33N 37°57' E 023°38'0 0.0
2015-Feb-20 05:33N 37°57' E 023°38'0 0.1
2015-Feb-20 04:34N 37°57' E 023°38'1918.7
2015-Feb-20 03:33N 37°39' E 023°45'2 0.1
2015-Feb-18 20:33N 37°36' E 023°45'2020.1
2015-Feb-18 19:33N 37°55' E 023°37'2 1.8
2015-Feb-18 18:34N 37°57' E 023°38'0 0.0
2015-Feb-18 17:33N 37°57' E 023°38'0 0.0
2015-Feb-18 16:33N 37°57' E 023°38'0 0.0
2015-Feb-18 15:34N 37°57' E 023°38'0 0.0
2015-Feb-18 14:33N 37°57' E 023°38'0 0.0
2015-Feb-18 13:33N 37°57' E 023°38'0 0.0
2015-Feb-18 12:33N 37°57' E 023°38'0 0.0
2015-Feb-18 11:33N 37°57' E 023°38'0 0.0
2015-Feb-18 10:33N 37°57' E 023°38'0 0.0
2015-Feb-18 09:33N 37°57' E 023°38'0 0.0
2015-Feb-18 08:33N 37°57' E 023°38'0 0.0
2015-Feb-18 07:33N 37°57' E 023°38'0 0.0
2015-Feb-18 06:31N 37°57' E 023°38'0 0.0
2015-Feb-18 05:29N 37°57' E 023°38'1 1.0
2015-Feb-18 04:33N 37°56' E 023°37'2121.2
2015-Feb-18 03:33N 37°36' E 023°46'  
Track history (hours):
 
Tides and Currents Weather Stations Pressure Air Temp Water Temp Dewpoint Dewpoint Depression Visibility Wind Speed Wind Dir Waves Ship Positions

Blue Star 1

Last reported at 2015-Feb-27 23:33 UTC. Time now 2015-Mar-01 12:39 UTC.
Position N 37°19' E 025°51'.

Length 176 m; draft 6.5 m.

Type: Passenger vessel. MMSI: 239710000.

Date/timePositionNaut miles runAvg speedWind from/ knotsBaromVisibWave heightAir tempDewpointWater temp
2015-Feb-27 23:33N 37°19' E 025°51'2221.8
2015-Feb-27 22:33N 37°21' E 025°24'2221.5
2015-Feb-27 21:33N 37°26' E 024°58'9 9.4
2015-Feb-27 20:33N 37°32' E 024°48'3624.3
2015-Feb-27 19:03N 37°34' E 024°02'1224.9
2015-Feb-27 18:33N 37°38' E 023°48'2020.2
2015-Feb-27 17:33N 37°56' E 023°38'0 0.0
2015-Feb-27 16:28N 37°56' E 023°38'0 0.0
2015-Feb-27 15:31N 37°56' E 023°38'0 0.0
2015-Feb-27 14:28N 37°56' E 023°38'0 0.0
2015-Feb-27 13:31N 37°56' E 023°38'0 0.0
2015-Feb-27 12:25N 37°56' E 023°38'0 0.0
2015-Feb-27 11:31N 37°56' E 023°38'0 0.0
2015-Feb-27 10:28N 37°56' E 023°38'0 0.0
2015-Feb-27 09:30N 37°56' E 023°38'0 0.0
2015-Feb-27 08:31N 37°56' E 023°38'0 0.0
2015-Feb-27 07:22N 37°56' E 023°38'0 0.0
2015-Feb-27 06:31N 37°56' E 023°38'7 6.9
2015-Feb-27 05:34N 37°50' E 023°40'2121.1
2015-Feb-27 04:33N 37°35' E 023°59'4422.2
2015-Feb-27 02:33N 37°21' E 024°52'2120.7
2015-Feb-27 01:34N 37°19' E 025°18'2019.6
2015-Feb-27 00:33N 37°17' E 025°42'8 0.3
2015-Feb-25 23:33N 37°19' E 025°53'2222.1
2015-Feb-25 22:33N 37°20' E 025°25'2416.7
2015-Feb-25 21:08N 37°26' E 024°57'812.8
2015-Feb-25 20:30N 37°32' E 024°50'4724.0
2015-Feb-25 18:33N 37°37' E 023°51'2221.7
2015-Feb-25 17:32N 37°56' E 023°37'0 0.2
2015-Feb-25 16:25N 37°56' E 023°38'0 0.0
2015-Feb-25 15:25N 37°56' E 023°38'0 0.0
2015-Feb-25 14:31N 37°56' E 023°38'0 0.0
2015-Feb-25 13:19N 37°56' E 023°38'0 0.0
2015-Feb-25 12:31N 37°56' E 023°38'0 0.0
2015-Feb-25 11:30N 37°56' E 023°38'0 0.0
2015-Feb-25 10:30N 37°56' E 023°38'0 0.0
2015-Feb-25 09:33N 37°56' E 023°38'0 0.0
2015-Feb-25 08:24N 37°56' E 023°38'0 0.0
2015-Feb-25 07:33N 37°56' E 023°38'0 0.0
2015-Feb-25 06:27N 37°56' E 023°38'7 7.6
2015-Feb-25 05:33N 37°50' E 023°40'6020.2
2015-Feb-25 02:33N 37°21' E 024°47'2121.5
2015-Feb-25 01:33N 37°19' E 025°14'2222.1
2015-Feb-25 00:32N 37°18' E 025°42'10 0.4
2015-Feb-23 23:24N 37°18' E 025°55'1922.7
2015-Feb-23 22:33N 37°20' E 025°31'2222.2
2015-Feb-23 21:33N 37°25' E 025°04'1311.4
2015-Feb-23 20:23N 37°32' E 024°50'6020.7
2015-Feb-23 17:30N 37°48' E 023°37'8 8.2
2015-Feb-23 16:31N 37°56' E 023°38'0 0.0
2015-Feb-23 15:31N 37°56' E 023°38'0 0.0
2015-Feb-23 14:28N 37°56' E 023°38'0 0.0
2015-Feb-23 13:31N 37°56' E 023°38'0 0.0
2015-Feb-23 12:28N 37°56' E 023°38'0 0.0
2015-Feb-23 11:31N 37°56' E 023°38'0 0.0
2015-Feb-23 10:31N 37°56' E 023°38'0 0.0
2015-Feb-23 09:31N 37°56' E 023°38'0 0.0
2015-Feb-23 08:31N 37°56' E 023°38'0 0.0
2015-Feb-23 07:33N 37°56' E 023°38'0 0.0
2015-Feb-23 06:33N 37°56' E 023°38'0 0.0
2015-Feb-23 05:33N 37°56' E 023°38'0 0.0
2015-Feb-23 04:33N 37°56' E 023°38'0 0.0
2015-Feb-23 03:33N 37°56' E 023°38'0 0.0
2015-Feb-23 02:33N 37°56' E 023°38'0 0.0
2015-Feb-23 01:33N 37°56' E 023°38'0 0.0
2015-Feb-23 00:33N 37°56' E 023°38'0 0.0
2015-Feb-22 23:33N 37°56' E 023°38'0 0.0
2015-Feb-22 22:33N 37°56' E 023°38'0 0.0
2015-Feb-22 21:33N 37°56' E 023°38'0 0.0
2015-Feb-22 20:33N 37°56' E 023°38'0 0.0
2015-Feb-22 19:29N 37°56' E 023°38'0 0.0
2015-Feb-22 18:32N 37°56' E 023°38'0 0.0
2015-Feb-22 17:32N 37°56' E 023°38'0 0.0
2015-Feb-22 16:29N 37°56' E 023°38'0 0.0
2015-Feb-22 15:32N 37°56' E 023°38'0 0.0
2015-Feb-22 14:32N 37°56' E 023°38'0 0.0
2015-Feb-22 13:32N 37°56' E 023°38'0 0.0
2015-Feb-22 12:32N 37°56' E 023°38'0 0.0
2015-Feb-22 11:32N 37°56' E 023°38'0 0.0
2015-Feb-22 10:32N 37°56' E 023°38'0 0.0
2015-Feb-22 09:32N 37°56' E 023°38'0 0.0
2015-Feb-22 08:32N 37°56' E 023°38'0 0.0
2015-Feb-22 07:28N 37°56' E 023°38'0 0.0
2015-Feb-22 06:31N 37°56' E 023°38'0 0.0
2015-Feb-22 05:28N 37°56' E 023°38'0 0.0
2015-Feb-22 04:33N 37°56' E 023°38'8 7.6
2015-Feb-22 03:33N 37°49' E 023°41'12 0.4
2015-Feb-20 20:30N 37°37' E 023°44'2020.9
2015-Feb-20 19:33N 37°56' E 023°37'1 0.9
2015-Feb-20 18:31N 37°57' E 023°38'0 0.0
2015-Feb-20 17:31N 37°57' E 023°38'0 0.0
2015-Feb-20 16:25N 37°57' E 023°38'0 0.0
2015-Feb-20 15:31N 37°57' E 023°38'0 0.0
2015-Feb-20 09:27N 37°57' E 023°38'0 0.0
2015-Feb-20 08:33N 37°57' E 023°38'0 0.0
2015-Feb-20 07:33N 37°57' E 023°38'0 0.0
2015-Feb-20 06:33N 37°57' E 023°38'0 0.0
2015-Feb-20 05:33N 37°57' E 023°38'0 0.1
2015-Feb-20 04:34N 37°57' E 023°38'1918.7
2015-Feb-20 03:33N 37°39' E 023°45'2 0.1
2015-Feb-18 20:33N 37°36' E 023°45'2020.1
2015-Feb-18 19:33N 37°55' E 023°37'2 1.8
2015-Feb-18 18:34N 37°57' E 023°38'0 0.0
2015-Feb-18 17:33N 37°57' E 023°38'0 0.0
2015-Feb-18 16:33N 37°57' E 023°38'0 0.0
2015-Feb-18 15:34N 37°57' E 023°38'0 0.0
2015-Feb-18 14:33N 37°57' E 023°38'0 0.0
2015-Feb-18 13:33N 37°57' E 023°38'0 0.0
2015-Feb-18 12:33N 37°57' E 023°38'0 0.0
2015-Feb-18 11:33N 37°57' E 023°38'0 0.0
2015-Feb-18 10:33N 37°57' E 023°38'0 0.0
2015-Feb-18 09:33N 37°57' E 023°38'0 0.0
2015-Feb-18 08:33N 37°57' E 023°38'0 0.0
2015-Feb-18 07:33N 37°57' E 023°38'0 0.0
2015-Feb-18 06:31N 37°57' E 023°38'0 0.0
2015-Feb-18 05:29N 37°57' E 023°38'1 1.0
2015-Feb-18 04:33N 37°56' E 023°37'2121.2
2015-Feb-18 03:33N 37°36' E 023°46'  

Dump ship's entire track history